Portada
METAR-TAF:

METAR-TAF

Aeroports :

Gandja, Azerbaidjan

latitud: 40-44N, longitud: 046-24E, altitud: 330 m

Observació

L'informe es va fer fa 37 minuts, a les 14:00 UTC
Vent 10 kt del Oest/Nord-Oest
Temperatura 15°C
Humitat 39%
Pressió 1017 hPa
Visibilitat 10 km o més
Núvols disperses a una alçada de 10000 ft

METAR: UBBG 231400Z 29010KT 9999 SCT100 15/01 Q1017 R30/CLRD// NOSIG

Hora: 18:37 (14:37 UTC)

Pronòstic

L'informe es va fer fa 3 hores i 37 minuts, a les 11:00 UTC
Pronòstic vàlid del 23 a les 12 UTC al 24 a les 12 UTC
Vent 16 kt del Oest/Nord-Oest
Visibilitat 10 km o més
Escasses núvols a una alçada de 4000 ft
Núvols disperses a una alçada de 10000 ft
Temporalment
l' 23 a les 12 UTC al 23 a les 21 UTC
Vent 10 kt del Oest

TAF: UBBG 231100Z 2312/2412 30016KT 9999 FEW040 SCT100 TX16/2312Z TN05/2403Z TEMPO 2312/2321 28010KT

Observacions i pronòstics meteorològics de més de 4000 aeroports (METAR i TAF).

Les estacions disponibles són els punts grocs i vermells al mapa.

Posi el ratolí al punt desitjat per veure el nom de l'estació.

Feu clic per veure les observacions i els pronòstics meteorològics.

Per canviar el mapa: feu clic els botons verds amb una creu de color negre per apropar; al botó verd amb un guió per allunyar la imatge; o en les fletxes verdes per a mapes adjacents.


METAR-TAF: